Hodgeville, Canada
Current Conditions -  °F | °C
As of 7:09 PM on Saturday 22 Nov 2014 (Local Time) from CYYN Reporting Station
Light Snow Light Snow  
Wind Chill: -7°   Ceiling: 400
Heat Index:   Visibility: 2.5mi
Dew Point:   Wind: 21mph
Humidity: 100%   Direction: 280°W
Pressure: 29.12"   Gusts: 28mph
Location:  50.12°N, 106.98°W
Report Text: CYYN 230109Z AUTO 28018G24KT 2 1/2SM -SN OVC004 00/M00 A2912 RMK ICG PAST HR SLP885
Loading
Personal Weather Stations






























Interactive Weather Map New forecast layout! Learn more

10-Day Weather Forecast

Advertisements
Track Severe Weather on mobile